createdAt,value
2023-11-25T00:01:10.322Z,99566.38
2023-11-25T00:03:40.099Z,99557.63
2023-11-25T00:06:06.969Z,99564.13
2023-11-25T00:08:33.808Z,99567.34
2023-11-25T00:11:00.677Z,99588.59
2023-11-25T00:13:31.377Z,99590.25
2023-11-25T00:16:04.838Z,99568.75
2023-11-25T00:18:31.562Z,99528.31
2023-11-25T00:21:06.657Z,99543.03
2023-11-25T00:23:41.815Z,99586.63
2023-11-25T00:26:18.285Z,99562.75
2023-11-25T00:28:48.034Z,99591.94
2023-11-25T00:31:25.604Z,99566.38
2023-11-25T00:34:00.925Z,99575.53
2023-11-25T00:36:28.000Z,99603.63
2023-11-25T00:38:59.235Z,99582.09
2023-11-25T00:41:26.588Z,99595.97
2023-11-25T00:43:53.528Z,99598.31
2023-11-25T00:46:21.596Z,99577.72
2023-11-25T00:48:54.725Z,99528.63
2023-11-25T00:51:21.529Z,99438.41
2023-11-25T00:53:53.581Z,99564.56
2023-11-25T00:56:20.523Z,99597.22
2023-11-25T00:58:47.192Z,99540.81
2023-11-25T01:01:14.129Z,99518.63
2023-11-25T01:03:47.504Z,99616.63
2023-11-25T01:06:14.343Z,99618.97
2023-11-25T01:08:42.383Z,99613.03
2023-11-25T01:11:12.260Z,99613.41
2023-11-25T01:13:46.046Z,99602.75
2023-11-25T01:16:25.180Z,99607.44
2023-11-25T01:19:02.090Z,99590.53
2023-11-25T01:21:29.456Z,99599.13
2023-11-25T01:23:56.649Z,99570.03
2023-11-25T01:26:27.012Z,99595.81
2023-11-25T01:28:55.476Z,99640.84
2023-11-25T01:31:24.311Z,99643.06
2023-11-25T01:33:53.642Z,99662.78
2023-11-25T01:36:24.407Z,99633.59
2023-11-25T01:38:50.961Z,99643.19
2023-11-25T01:41:26.292Z,99669.31
2023-11-25T01:43:56.325Z,99670.75
2023-11-25T01:46:45.252Z,99692.72
2023-11-25T01:49:15.546Z,99603.97
2023-11-25T01:51:44.831Z,99679.81
2023-11-25T01:54:15.284Z,99683.44
2023-11-25T01:56:45.964Z,99703.44
2023-11-25T01:59:19.980Z,99541.28
2023-11-25T02:02:00.905Z,99658.56
2023-11-25T02:04:27.802Z,99708.19
2023-11-25T02:06:54.529Z,99678.72
2023-11-25T02:09:24.808Z,99682.31
2023-11-25T02:11:56.248Z,99719.72
2023-11-25T02:14:23.957Z,99714.31
2023-11-25T02:16:51.241Z,99697.06
2023-11-25T02:19:22.252Z,99702.63
2023-11-25T02:21:48.880Z,99699.28
2023-11-25T02:24:15.554Z,99697.59
2023-11-25T02:26:45.017Z,99660.22
2023-11-25T02:29:11.710Z,99588.38
2023-11-25T02:31:39.993Z,99699.41
2023-11-25T02:34:11.230Z,99691.09
2023-11-25T02:36:39.806Z,99684.00
2023-11-25T02:39:06.858Z,99645.91
2023-11-25T02:41:33.885Z,99677.59
2023-11-25T02:44:03.793Z,99674.53
2023-11-25T02:46:30.617Z,99660.94
2023-11-25T02:48:57.345Z,99670.91
2023-11-25T02:51:25.565Z,99653.53
2023-11-25T02:53:52.176Z,99626.72
2023-11-25T02:56:18.883Z,99644.50
2023-11-25T02:58:45.585Z,99639.63
2023-11-25T03:01:15.195Z,99682.13
2023-11-25T03:03:48.746Z,99641.16
2023-11-25T03:06:23.481Z,99634.50
2023-11-25T03:08:50.433Z,99671.19
2023-11-25T03:11:22.275Z,99629.84
2023-11-25T03:13:50.566Z,99652.38
2023-11-25T03:16:25.883Z,99680.28
2023-11-25T03:18:55.702Z,99684.72
2023-11-25T03:21:24.988Z,99676.66
2023-11-25T03:23:52.107Z,99681.97
2023-11-25T03:26:18.936Z,99682.78
2023-11-25T03:28:45.992Z,99680.88
2023-11-25T03:31:13.625Z,99686.94
2023-11-25T03:33:40.688Z,99689.47
2023-11-25T03:36:08.914Z,99694.16
2023-11-25T03:38:37.450Z,99632.72
2023-11-25T03:41:04.060Z,99646.59
2023-11-25T03:43:30.789Z,99630.25
2023-11-25T03:45:58.352Z,99673.44
2023-11-25T03:48:25.414Z,99671.88
2023-11-25T03:50:53.972Z,99641.22
2023-11-25T03:53:23.879Z,99681.50
2023-11-25T03:55:50.603Z,99591.47
2023-11-25T03:58:17.348Z,99677.47
2023-11-25T04:00:44.269Z,99674.53
2023-11-25T04:03:11.071Z,99675.22
2023-11-25T04:05:38.021Z,99679.13
2023-11-25T04:08:04.852Z,99677.31
2023-11-25T04:10:31.665Z,99612.31
2023-11-25T04:12:58.367Z,99685.09
2023-11-25T04:15:25.343Z,99670.97
2023-11-25T04:17:53.025Z,99657.91
2023-11-25T04:20:26.258Z,99684.44
2023-11-25T04:22:54.170Z,99686.38
2023-11-25T04:25:21.454Z,99621.94
2023-11-25T04:27:49.969Z,99689.72
2023-11-25T04:30:20.461Z,99639.75
2023-11-25T04:32:49.133Z,99699.44
2023-11-25T04:35:17.391Z,99677.38
2023-11-25T04:37:49.190Z,99697.22
2023-11-25T04:40:16.284Z,99587.50
2023-11-25T04:42:48.021Z,99678.47
2023-11-25T04:45:18.660Z,99694.47
2023-11-25T04:47:51.210Z,99713.91
2023-11-25T04:50:22.239Z,99669.47
2023-11-25T04:52:49.127Z,99719.91
2023-11-25T04:55:16.338Z,99721.16
2023-11-25T04:57:44.256Z,99682.84
2023-11-25T05:00:12.908Z,99723.13
2023-11-25T05:02:40.126Z,99660.34
2023-11-25T05:05:07.901Z,99733.16
2023-11-25T05:07:37.747Z,99713.03
2023-11-25T05:10:12.738Z,99709.28
2023-11-25T05:12:46.377Z,99720.38
2023-11-25T05:15:15.810Z,99732.91
2023-11-25T05:17:42.503Z,99727.06
2023-11-25T05:20:18.059Z,99713.44
2023-11-25T05:22:47.744Z,99707.34
2023-11-25T05:25:20.336Z,99687.75
2023-11-25T05:27:47.006Z,99736.81
2023-11-25T05:30:15.165Z,99740.00
2023-11-25T05:32:43.980Z,99725.44
2023-11-25T05:35:12.543Z,99727.38
2023-11-25T05:37:40.178Z,99739.88
2023-11-25T05:40:10.291Z,99728.63
2023-11-25T05:42:38.530Z,99744.47
2023-11-25T05:45:09.739Z,99750.72
2023-11-25T05:47:38.291Z,99769.91
2023-11-25T05:50:08.765Z,99738.47
2023-11-25T05:52:37.423Z,99757.25
2023-11-25T05:55:04.611Z,99727.19
2023-11-25T05:57:31.162Z,99752.38
2023-11-25T05:59:58.081Z,99704.22
2023-11-25T06:02:24.868Z,99766.00
2023-11-25T06:04:51.776Z,99784.09
2023-11-25T06:07:21.310Z,99769.34
2023-11-25T06:09:47.987Z,99805.63
2023-11-25T06:12:14.902Z,99801.81
2023-11-25T06:14:43.136Z,99816.31
2023-11-25T06:17:09.840Z,99800.97
2023-11-25T06:19:37.383Z,99830.78
2023-11-25T06:22:05.633Z,99810.94
2023-11-25T06:24:32.658Z,99854.13
2023-11-25T06:27:00.132Z,99825.44
2023-11-25T06:29:26.856Z,99862.13
2023-11-25T06:31:53.685Z,99852.53
2023-11-25T06:34:23.036Z,99829.97
2023-11-25T06:36:49.810Z,99887.28
2023-11-25T06:39:22.823Z,99830.38
2023-11-25T06:41:54.635Z,99885.22
2023-11-25T06:44:21.838Z,99889.66
2023-11-25T06:46:51.276Z,99900.84
2023-11-25T06:49:20.439Z,99897.16
2023-11-25T06:51:47.121Z,99832.88
2023-11-25T06:54:13.889Z,99903.09
2023-11-25T06:56:42.658Z,99908.09
2023-11-25T06:59:11.575Z,99920.28
2023-11-25T07:01:38.477Z,99803.63
2023-11-25T07:04:06.108Z,99876.72
2023-11-25T07:06:33.039Z,99861.06
2023-11-25T07:09:01.551Z,99894.53
2023-11-25T07:11:31.448Z,99929.63
2023-11-25T07:13:58.608Z,99927.59
2023-11-25T07:16:28.614Z,99909.94
2023-11-25T07:18:56.210Z,99940.66
2023-11-25T07:21:25.514Z,99946.63
2023-11-25T07:23:52.439Z,99927.13
2023-11-25T07:26:19.545Z,99923.47
2023-11-25T07:28:48.107Z,99915.22
2023-11-25T07:31:14.987Z,99927.78
2023-11-25T07:33:42.057Z,99933.63
2023-11-25T07:36:11.188Z,99956.44
2023-11-25T07:38:40.734Z,99962.41
2023-11-25T07:41:07.576Z,99928.03
2023-11-25T07:43:34.562Z,99959.31
2023-11-25T07:46:01.259Z,99940.69
2023-11-25T07:48:28.028Z,99968.06
2023-11-25T07:51:00.354Z,99971.28
2023-11-25T07:53:30.663Z,99966.84
2023-11-25T07:55:57.494Z,99944.00
2023-11-25T07:58:24.773Z,99952.16
2023-11-25T08:00:51.592Z,99943.41
2023-11-25T08:03:18.473Z,99976.50
2023-11-25T08:05:45.893Z,99982.09
2023-11-25T08:08:13.257Z,99876.41
2023-11-25T08:10:39.976Z,99985.38
2023-11-25T08:13:16.180Z,99964.09
2023-11-25T08:15:43.464Z,100008.81
2023-11-25T08:18:10.411Z,99949.28
2023-11-25T08:20:37.902Z,100014.16
2023-11-25T08:23:08.403Z,100016.34
2023-11-25T08:25:35.439Z,100032.25
2023-11-25T08:28:02.604Z,100047.78
2023-11-25T08:30:29.745Z,100035.22
2023-11-25T08:32:58.340Z,100037.53
2023-11-25T08:35:25.482Z,100035.94
2023-11-25T08:37:52.324Z,100016.84
2023-11-25T08:40:23.267Z,100047.50
2023-11-25T08:42:50.956Z,100073.06
2023-11-25T08:45:17.913Z,100078.09
2023-11-25T08:47:53.146Z,100054.38
2023-11-25T08:50:26.115Z,100066.38
2023-11-25T08:52:54.797Z,100070.69
2023-11-25T08:55:23.551Z,100096.25
2023-11-25T08:57:52.662Z,100094.91
2023-11-25T09:00:22.361Z,100092.63
2023-11-25T09:02:53.121Z,100119.91
2023-11-25T09:05:30.578Z,100112.38
2023-11-25T09:07:57.781Z,100113.59
2023-11-25T09:10:26.325Z,100108.63
2023-11-25T09:12:57.438Z,100065.81
2023-11-25T09:15:40.901Z,100132.00
2023-11-25T09:18:16.804Z,100127.41
2023-11-25T09:20:43.753Z,100151.81
2023-11-25T09:23:10.550Z,100152.53
2023-11-25T09:25:45.304Z,100167.88
2023-11-25T09:28:14.272Z,100163.28
2023-11-25T09:30:41.241Z,100166.38
2023-11-25T09:33:08.070Z,100173.38
2023-11-25T09:35:44.536Z,100177.00
2023-11-25T09:38:11.755Z,100171.03
2023-11-25T09:40:38.851Z,100148.56
2023-11-25T09:43:05.643Z,100173.28
2023-11-25T09:45:33.056Z,100150.09
2023-11-25T09:47:59.977Z,100181.47
2023-11-25T09:50:26.769Z,100177.88
2023-11-25T09:53:03.392Z,100157.22
2023-11-25T09:55:32.254Z,100154.56
2023-11-25T09:58:03.525Z,100192.09
2023-11-25T10:00:33.991Z,100117.66
2023-11-25T10:03:02.774Z,100189.69
2023-11-25T10:05:32.754Z,100177.13
2023-11-25T10:08:01.124Z,100162.66
2023-11-25T10:10:30.330Z,100107.72
2023-11-25T10:12:57.371Z,100159.56
2023-11-25T10:15:26.601Z,100173.47
2023-11-25T10:17:56.606Z,100149.22
2023-11-25T10:20:27.273Z,100163.97
2023-11-25T10:23:00.574Z,100162.56
2023-11-25T10:25:32.136Z,100151.97
2023-11-25T10:28:05.092Z,100073.13
2023-11-25T10:30:32.511Z,100127.13
2023-11-25T10:33:03.722Z,100152.63
2023-11-25T10:35:30.498Z,100145.66
2023-11-25T10:37:57.358Z,100141.03
2023-11-25T10:40:31.851Z,100139.09
2023-11-25T10:43:05.692Z,100149.34
2023-11-25T10:45:32.575Z,100140.31
2023-11-25T10:47:59.841Z,100130.00
2023-11-25T10:50:35.411Z,100136.19
2023-11-25T10:53:06.636Z,100127.56
2023-11-25T10:55:34.979Z,100137.03
2023-11-25T10:58:03.721Z,100121.00
2023-11-25T11:00:31.617Z,100117.81
2023-11-25T11:03:06.982Z,100128.81
2023-11-25T11:05:54.249Z,100143.56
2023-11-25T11:08:26.998Z,100137.66
2023-11-25T11:11:17.505Z,100140.47
2023-11-25T11:13:58.012Z,100140.56
2023-11-25T11:16:39.502Z,100147.00
2023-11-25T11:19:09.521Z,100143.66
2023-11-25T11:21:39.671Z,100130.81
2023-11-25T11:24:16.262Z,100134.34
2023-11-25T11:27:05.782Z,100140.81
2023-11-25T11:29:44.333Z,100145.81
2023-11-25T11:32:20.497Z,100124.53
2023-11-25T11:34:48.281Z,100146.56
2023-11-25T11:37:15.294Z,100121.47
2023-11-25T11:40:01.119Z,100137.66
2023-11-25T11:42:35.403Z,100109.06
2023-11-25T11:45:24.207Z,100131.56
2023-11-25T11:47:59.503Z,100132.41
2023-11-25T11:50:32.786Z,100120.84
2023-11-25T11:53:02.729Z,100038.28
2023-11-25T11:55:42.724Z,100140.44
2023-11-25T11:58:12.529Z,100122.06
2023-11-25T12:00:56.738Z,100135.44
2023-11-25T12:03:24.958Z,100131.56
2023-11-25T12:05:52.956Z,100150.63
2023-11-25T12:08:20.720Z,100098.31
2023-11-25T12:10:48.749Z,100047.94
2023-11-25T12:13:32.528Z,100140.00
2023-11-25T12:16:06.586Z,100140.13
2023-11-25T12:18:43.907Z,100150.69
2023-11-25T12:21:11.246Z,100109.91
2023-11-25T12:23:48.736Z,100150.09
2023-11-25T12:26:28.447Z,100131.19
2023-11-25T12:28:56.637Z,100120.63
2023-11-25T12:31:23.563Z,100135.69
2023-11-25T12:33:50.703Z,100121.78
2023-11-25T12:36:19.063Z,100112.28
2023-11-25T12:38:46.088Z,100140.16
2023-11-25T12:41:17.593Z,100138.88
2023-11-25T12:44:12.772Z,100165.84
2023-11-25T12:46:44.937Z,100129.84
2023-11-25T12:49:31.143Z,100143.72
2023-11-25T12:52:01.083Z,100155.03
2023-11-25T12:54:43.837Z,100138.72
2023-11-25T12:57:11.713Z,100148.44
2023-11-25T12:59:39.262Z,100136.81
2023-11-25T13:02:10.310Z,100151.56
2023-11-25T13:04:45.773Z,100161.03
2023-11-25T13:07:13.298Z,100138.34
2023-11-25T13:09:47.027Z,100115.22
2023-11-25T13:12:17.805Z,100129.19
2023-11-25T13:14:44.834Z,100165.50
2023-11-25T13:17:12.192Z,100166.34
2023-11-25T13:19:39.138Z,100133.75
2023-11-25T13:22:05.799Z,100176.06
2023-11-25T13:24:32.438Z,100125.13
2023-11-25T13:27:02.112Z,100175.53
2023-11-25T13:29:28.906Z,100128.22
2023-11-25T13:31:55.590Z,100165.22
2023-11-25T13:34:22.582Z,100180.16
2023-11-25T13:36:49.845Z,100141.25
2023-11-25T13:39:22.911Z,100173.69
2023-11-25T13:41:53.125Z,100173.63
2023-11-25T13:44:35.766Z,100176.34
2023-11-25T13:47:02.588Z,100183.94
2023-11-25T13:49:33.423Z,100170.72
2023-11-25T13:52:00.445Z,100133.22
2023-11-25T13:54:27.114Z,100116.31
2023-11-25T13:56:53.837Z,100168.81
2023-11-25T13:59:22.963Z,100198.06
2023-11-25T14:01:50.021Z,100169.75
2023-11-25T14:04:16.890Z,100203.63
2023-11-25T14:06:48.169Z,100204.88
2023-11-25T14:09:19.176Z,100181.78
2023-11-25T14:11:47.245Z,100194.50
2023-11-25T14:14:14.261Z,100199.41
2023-11-25T14:16:46.434Z,100204.13
2023-11-25T14:19:20.722Z,100198.03
2023-11-25T14:21:53.256Z,100216.81
2023-11-25T14:24:30.480Z,100211.88
2023-11-25T14:26:57.237Z,100197.72
2023-11-25T14:29:23.899Z,100226.31
2023-11-25T14:31:50.675Z,100228.78
2023-11-25T14:34:26.896Z,100232.06
2023-11-25T14:36:58.008Z,100220.94
2023-11-25T14:39:42.155Z,100219.28
2023-11-25T14:42:14.697Z,100231.56
2023-11-25T14:44:41.708Z,100213.63
2023-11-25T14:47:13.819Z,100224.88
2023-11-25T14:49:40.831Z,100222.63
2023-11-25T14:52:07.447Z,100253.88
2023-11-25T14:54:34.589Z,100244.84
2023-11-25T14:57:07.637Z,100216.09
2023-11-25T14:59:37.841Z,100251.22
2023-11-25T15:02:04.902Z,100237.25
2023-11-25T15:04:40.391Z,100230.63
2023-11-25T15:07:13.224Z,100262.84
2023-11-25T15:09:43.663Z,100261.03
2023-11-25T15:12:11.712Z,100214.34
2023-11-25T15:14:39.937Z,100254.38
2023-11-25T15:17:15.443Z,100253.97
2023-11-25T15:19:45.497Z,100242.00
2023-11-25T15:22:12.466Z,100270.81
2023-11-25T15:24:39.312Z,100283.00
2023-11-25T15:30:02.527Z,100244.56
2023-11-25T15:32:29.418Z,100287.66
2023-11-25T15:34:57.393Z,100291.00
2023-11-25T15:37:24.151Z,100253.53
2023-11-25T15:39:51.643Z,100269.75
2023-11-25T15:42:28.174Z,100305.19
2023-11-25T15:44:54.852Z,100291.81
2023-11-25T15:47:31.522Z,100302.13
2023-11-25T15:49:58.478Z,100290.84
2023-11-25T15:52:25.330Z,100263.50
2023-11-25T15:54:56.792Z,100309.44
2023-11-25T15:57:24.247Z,100301.75
2023-11-25T15:59:51.638Z,100322.69
2023-11-25T16:02:20.441Z,100291.84
2023-11-25T16:04:52.670Z,100336.50
2023-11-25T16:07:22.470Z,100329.50
2023-11-25T16:09:49.393Z,100303.28
2023-11-25T16:12:16.881Z,100297.41
2023-11-25T16:14:43.900Z,100284.41
2023-11-25T16:17:10.706Z,100313.88
2023-11-25T16:19:38.234Z,100317.94
2023-11-25T16:22:15.702Z,100335.94
2023-11-25T16:24:43.008Z,100345.41
2023-11-25T16:27:09.927Z,100329.50
2023-11-25T16:29:36.589Z,100303.13
2023-11-25T16:32:04.505Z,100336.19
2023-11-25T16:34:31.661Z,100356.59
2023-11-25T16:36:58.390Z,100343.75
2023-11-25T16:39:25.292Z,100356.44
2023-11-25T16:42:00.639Z,100361.63
2023-11-25T16:44:30.917Z,100361.19
2023-11-25T16:46:58.169Z,100362.00
2023-11-25T16:49:26.741Z,100354.88
2023-11-25T16:51:59.437Z,100359.06
2023-11-25T16:54:26.598Z,100361.16
2023-11-25T16:56:53.425Z,100344.53
2023-11-25T16:59:24.187Z,100370.22
2023-11-25T17:01:54.312Z,100358.72
2023-11-25T17:04:21.440Z,100389.25
2023-11-25T17:06:48.620Z,100369.72
2023-11-25T17:09:15.485Z,100388.97
2023-11-25T17:11:42.333Z,100395.84
2023-11-25T17:14:09.006Z,100355.72
2023-11-25T17:16:46.073Z,100385.22
2023-11-25T17:19:13.339Z,100311.34
2023-11-25T17:21:39.922Z,100377.84
2023-11-25T17:24:08.399Z,100330.13
2023-11-25T17:26:35.405Z,100392.38
2023-11-25T17:29:02.397Z,100416.06
2023-11-25T17:31:29.038Z,100389.81
2023-11-25T17:33:55.988Z,100330.56
2023-11-25T17:36:27.679Z,100388.19
2023-11-25T17:38:54.282Z,100429.34
2023-11-25T17:41:24.548Z,100428.91
2023-11-25T17:43:51.439Z,100426.22
2023-11-25T17:46:18.371Z,100389.09
2023-11-25T17:48:48.022Z,100405.75
2023-11-25T17:51:15.403Z,100417.16
2023-11-25T17:53:42.376Z,100412.66
2023-11-25T17:56:09.540Z,100426.31
2023-11-25T17:58:39.122Z,100422.56
2023-11-25T18:01:11.346Z,100404.22
2023-11-25T18:03:38.005Z,100429.06
2023-11-25T18:06:05.669Z,100427.84
2023-11-25T18:08:32.624Z,100426.69
2023-11-25T18:11:00.111Z,100439.06
2023-11-25T18:13:27.020Z,100419.72
2023-11-25T18:15:53.884Z,100430.63
2023-11-25T18:18:20.771Z,100414.28
2023-11-25T18:20:48.440Z,100420.03
2023-11-25T18:23:15.608Z,100441.91
2023-11-25T18:25:42.368Z,100423.06
2023-11-25T18:28:09.112Z,100406.66
2023-11-25T18:30:36.348Z,100450.19
2023-11-25T18:33:03.222Z,100441.47
2023-11-25T18:35:32.096Z,100436.19
2023-11-25T18:37:58.957Z,100442.06
2023-11-25T18:40:26.208Z,100442.06
2023-11-25T18:42:53.013Z,100458.44
2023-11-25T18:45:22.771Z,100421.81
2023-11-25T18:47:54.486Z,100456.91
2023-11-25T18:50:24.384Z,100448.28
2023-11-25T18:52:51.778Z,100466.50
2023-11-25T18:55:18.493Z,100455.72
2023-11-25T18:57:45.074Z,100464.50
2023-11-25T19:00:19.840Z,100459.03
2023-11-25T19:02:46.865Z,100446.81
2023-11-25T19:05:16.661Z,100424.03
2023-11-25T19:07:47.322Z,100446.97
2023-11-25T19:10:17.884Z,100465.25
2023-11-25T19:12:47.125Z,100467.09
2023-11-25T19:15:15.723Z,100465.94
2023-11-25T19:17:43.614Z,100477.50
2023-11-25T19:20:12.452Z,100464.53
2023-11-25T19:22:39.455Z,100469.38
2023-11-25T19:25:10.352Z,100476.94
2023-11-25T19:27:37.292Z,100478.53
2023-11-25T19:30:05.006Z,100481.78
2023-11-25T19:32:31.949Z,100478.53
2023-11-25T19:34:58.605Z,100474.97
2023-11-25T19:37:25.389Z,100461.75
2023-11-25T19:39:52.214Z,100465.34
2023-11-25T19:42:19.521Z,100455.28
2023-11-25T19:44:49.323Z,100487.38
2023-11-25T19:47:16.244Z,100464.50
2023-11-25T19:49:43.128Z,100443.78
2023-11-25T19:52:09.895Z,100466.69
2023-11-25T19:54:39.909Z,100487.44
2023-11-25T19:57:07.350Z,100458.56
2023-11-25T19:59:36.077Z,100473.19
2023-11-25T20:02:03.060Z,100497.31
2023-11-25T20:04:30.906Z,100465.16
2023-11-25T20:07:00.311Z,100438.81
2023-11-25T20:09:27.315Z,100461.13
2023-11-25T20:11:57.114Z,100464.09
2023-11-25T20:14:25.050Z,100451.91
2023-11-25T20:16:52.279Z,100466.50
2023-11-25T20:19:19.177Z,100422.41
2023-11-25T20:21:45.965Z,100423.22
2023-11-25T20:24:14.076Z,100483.25
2023-11-25T20:26:41.969Z,100401.75
2023-11-25T20:29:09.932Z,100469.31
2023-11-25T20:31:36.703Z,100499.44
2023-11-25T20:34:03.725Z,100473.81
2023-11-25T20:36:30.542Z,100502.38
2023-11-25T20:38:58.954Z,100486.09
2023-11-25T20:41:26.802Z,100463.94
2023-11-25T20:43:53.450Z,100480.28
2023-11-25T20:46:21.801Z,100477.91
2023-11-25T20:48:49.295Z,100527.84
2023-11-25T20:51:21.555Z,100481.53
2023-11-25T20:53:49.124Z,100504.56
2023-11-25T20:56:16.645Z,100514.06
2023-11-25T20:58:43.567Z,100526.69
2023-11-25T21:01:11.437Z,100380.78
2023-11-25T21:03:38.640Z,100473.16
2023-11-25T21:06:07.434Z,100477.59
2023-11-25T21:08:34.432Z,100488.75
2023-11-25T21:11:01.893Z,100527.19
2023-11-25T21:13:28.621Z,100500.75
2023-11-25T21:15:55.648Z,100395.84
2023-11-25T21:18:24.630Z,100496.19
2023-11-25T21:20:54.856Z,100519.97
2023-11-25T21:23:21.669Z,100513.50
2023-11-25T21:25:48.614Z,100515.69
2023-11-25T21:28:16.082Z,100485.13
2023-11-25T21:30:42.838Z,100522.88
2023-11-25T21:33:10.291Z,100504.25
2023-11-25T21:35:45.833Z,100500.53
2023-11-25T21:38:12.955Z,100506.94
2023-11-25T21:40:39.859Z,100507.69
2023-11-25T21:43:10.952Z,100511.38
2023-11-25T21:45:38.246Z,100502.81
2023-11-25T21:48:05.281Z,100504.88
2023-11-25T21:50:32.362Z,100510.41
2023-11-25T21:53:02.838Z,100499.75
2023-11-25T21:55:30.082Z,100474.75
2023-11-25T21:58:02.974Z,100473.53
2023-11-25T22:00:29.809Z,100499.44
2023-11-25T22:02:57.170Z,100510.97
2023-11-25T22:05:24.545Z,100519.59
2023-11-25T22:07:51.627Z,100448.72
2023-11-25T22:10:25.087Z,100499.28
2023-11-25T22:12:57.368Z,100491.72
2023-11-25T22:15:25.416Z,100523.06
2023-11-25T22:17:52.224Z,100506.28
2023-11-25T22:20:19.137Z,100527.19
2023-11-25T22:22:46.024Z,100523.09
2023-11-25T22:25:30.563Z,100518.06
2023-11-25T22:28:04.944Z,100522.53
2023-11-25T22:30:32.744Z,100515.75
2023-11-25T22:32:59.640Z,100515.50
2023-11-25T22:35:48.074Z,100512.06
2023-11-25T22:38:22.430Z,100516.13
2023-11-25T22:40:49.252Z,100524.75
2023-11-25T22:43:15.904Z,100518.69
2023-11-25T22:45:42.649Z,100530.00
2023-11-25T22:48:09.311Z,100528.25
2023-11-25T22:50:41.383Z,100485.50
2023-11-25T22:53:08.212Z,100488.53
2023-11-25T22:55:35.765Z,100511.47
2023-11-25T22:58:02.609Z,100461.84
2023-11-25T23:00:43.625Z,100507.56
2023-11-25T23:03:10.490Z,100488.47
2023-11-25T23:05:37.225Z,100507.19
2023-11-25T23:08:04.431Z,100513.41
2023-11-25T23:10:38.473Z,100481.28
2023-11-25T23:13:10.439Z,100513.22
2023-11-25T23:15:37.070Z,100512.28
2023-11-25T23:18:12.056Z,100506.84
2023-11-25T23:20:42.828Z,100501.34
2023-11-25T23:23:09.720Z,100509.63
2023-11-25T23:25:36.909Z,100504.34
2023-11-25T23:28:07.404Z,100505.03
2023-11-25T23:30:41.644Z,100477.91
2023-11-25T23:33:08.379Z,100468.19
2023-11-25T23:35:39.928Z,100489.22
2023-11-25T23:38:14.989Z,100479.09
2023-11-25T23:40:41.804Z,100488.22
2023-11-25T23:43:10.483Z,100480.03
2023-11-25T23:45:40.583Z,100472.09
2023-11-25T23:48:07.442Z,100487.28
2023-11-25T23:50:40.968Z,100476.94
2023-11-25T23:53:07.802Z,100465.16
2023-11-25T23:55:35.193Z,100466.81
2023-11-25T23:58:01.853Z,100479.34
